createdAt,value
2017-04-25T06:24:38.769Z,6.20
2017-04-25T06:26:16.256Z,6.20
2017-04-25T06:27:14.092Z,6.30
2017-04-25T06:28:13.180Z,6.30
2017-04-25T06:29:10.750Z,6.30
2017-04-25T06:30:08.921Z,6.30
2017-04-25T06:31:07.351Z,6.40
2017-04-25T06:32:05.749Z,6.40
2017-04-25T06:33:03.205Z,6.50
2017-04-25T06:34:01.496Z,6.60
2017-04-25T06:34:59.453Z,6.50
2017-04-25T06:35:56.917Z,6.50
2017-04-25T06:36:55.449Z,6.50
2017-04-25T06:37:52.938Z,6.50
2017-04-25T06:38:50.397Z,6.50
2017-04-25T06:39:48.465Z,6.40
2017-04-25T06:40:46.005Z,6.50
2017-04-25T06:41:44.445Z,6.50
2017-04-25T06:42:41.849Z,6.50
2017-04-25T06:43:39.330Z,6.50
2017-04-25T06:44:36.873Z,6.50
2017-04-25T06:45:34.480Z,6.50
2017-04-25T06:46:32.655Z,6.50
2017-04-25T06:47:29.990Z,6.50
2017-04-25T06:48:27.360Z,6.50
2017-04-25T06:49:24.779Z,6.50
2017-04-25T06:50:22.774Z,6.60
2017-04-25T06:51:20.113Z,6.70
2017-04-25T06:52:18.413Z,6.70
2017-04-25T07:02:58.474Z,6.80
2017-04-25T07:03:55.785Z,6.90
2017-04-25T07:04:53.301Z,6.80
2017-04-25T07:05:50.650Z,6.90
2017-04-25T07:06:49.642Z,6.70
2017-04-25T07:07:47.540Z,6.70
2017-04-25T07:08:45.562Z,6.70
2017-04-25T07:09:43.605Z,6.70
2017-04-25T07:10:41.702Z,6.70
2017-04-25T07:11:40.116Z,6.70
2017-04-25T07:12:37.494Z,6.70
2017-04-25T07:13:34.896Z,6.70
2017-04-25T07:14:33.582Z,6.70
2017-04-25T07:15:31.002Z,6.60
2017-04-25T07:16:28.484Z,6.60
2017-04-25T07:17:26.003Z,6.50
2017-04-25T07:18:23.474Z,6.50
2017-04-25T07:19:20.814Z,6.40
2017-04-25T07:20:18.985Z,6.40
2017-04-25T07:21:17.856Z,6.40
2017-04-25T07:22:15.357Z,6.40
2017-04-25T07:23:13.760Z,6.40
2017-04-25T07:24:11.082Z,6.40
2017-04-25T07:25:09.328Z,6.40
2017-04-25T07:26:07.861Z,6.50
2017-04-25T07:27:05.205Z,6.50
2017-04-25T07:28:03.939Z,6.40
2017-04-25T07:29:01.273Z,6.30
2017-04-25T07:29:59.466Z,6.20
2017-04-25T07:30:56.855Z,6.20
2017-04-25T07:31:54.194Z,6.10
2017-04-25T07:32:52.257Z,6.00
2017-04-25T07:33:49.706Z,6.00
2017-04-25T07:34:47.848Z,5.90
2017-04-25T07:35:45.177Z,5.80
2017-04-25T07:36:43.255Z,5.80
2017-04-25T07:37:41.322Z,5.80
2017-04-25T07:38:39.676Z,5.90
2017-04-25T07:39:37.915Z,5.90
2017-04-25T07:40:36.565Z,5.90
2017-04-25T07:41:33.902Z,6.00
2017-04-25T07:42:31.305Z,6.10
2017-04-25T07:43:28.676Z,6.20
2017-04-25T07:44:26.083Z,6.20
2017-04-25T07:45:23.955Z,6.30
2017-04-25T07:46:21.924Z,6.30
2017-04-25T07:47:19.262Z,6.30
2017-04-25T07:48:17.394Z,6.30
2017-04-25T07:49:14.739Z,6.30
2017-04-25T07:50:12.162Z,6.40
2017-04-25T07:51:09.505Z,6.30
2017-04-25T07:52:08.546Z,6.40
2017-04-25T07:53:06.760Z,6.40
2017-04-25T07:54:04.253Z,6.40
2017-04-25T07:55:01.605Z,6.50
2017-04-25T07:55:59.570Z,6.60
2017-04-25T07:56:59.045Z,6.70
2017-04-25T07:57:56.395Z,6.80
2017-04-25T07:58:54.554Z,7.10
2017-04-25T07:59:52.086Z,7.10
2017-04-25T08:00:50.174Z,7.40
2017-04-25T08:01:48.266Z,7.50
2017-04-25T08:02:46.369Z,7.60
2017-04-25T08:03:45.172Z,7.60
2017-04-25T08:04:43.594Z,7.90
2017-04-25T08:05:43.829Z,8.40
2017-04-25T08:06:42.198Z,8.30
2017-04-25T08:07:40.583Z,8.60
2017-04-25T08:08:40.217Z,8.70
2017-04-25T08:09:38.465Z,8.70
2017-04-25T08:10:36.444Z,8.70
2017-04-25T08:11:34.073Z,8.50
2017-04-25T08:12:31.736Z,8.50
2017-04-25T08:13:30.190Z,8.50
2017-04-25T08:14:28.865Z,8.40
2017-04-25T08:15:26.679Z,8.70
2017-04-25T08:16:24.309Z,8.90
2017-04-25T08:17:22.188Z,8.90
2017-04-25T08:18:20.831Z,9.10
2017-04-25T08:19:20.324Z,8.90
2017-04-25T08:20:18.072Z,8.90
2017-04-25T08:21:15.944Z,9.00
2017-04-25T08:22:13.699Z,9.00
2017-04-25T08:23:11.457Z,9.00
2017-04-25T08:24:09.696Z,8.90
2017-04-25T08:25:09.066Z,8.80
2017-04-25T08:26:07.009Z,8.40
2017-04-25T08:27:04.623Z,7.90
2017-04-25T08:28:01.969Z,7.70
2017-04-25T08:29:00.219Z,7.50
2017-04-25T08:29:58.708Z,7.20
2017-04-25T08:30:58.354Z,7.20
2017-04-25T08:31:56.446Z,7.10
2017-04-25T08:32:53.918Z,7.10
2017-04-25T08:33:51.870Z,7.10
2017-04-25T08:34:49.223Z,7.00
2017-04-25T08:35:47.399Z,7.10
2017-04-25T08:36:47.755Z,7.00
2017-04-25T08:37:45.834Z,7.10
2017-04-25T08:38:43.791Z,7.10
2017-04-25T08:39:41.211Z,7.10
2017-04-25T08:40:38.699Z,7.10
2017-04-25T08:41:36.033Z,7.10
2017-04-25T08:42:34.198Z,7.10
2017-04-25T08:43:32.190Z,7.10
2017-04-25T08:44:29.601Z,7.20
2017-04-25T08:45:26.937Z,7.30
2017-04-25T08:46:24.325Z,7.50
2017-04-25T08:47:21.954Z,7.70
2017-04-25T08:48:19.292Z,8.00
2017-04-25T08:49:16.651Z,8.20
2017-04-25T08:50:14.955Z,8.40
2017-04-25T08:51:12.961Z,8.60
2017-04-25T08:52:10.282Z,8.80
2017-04-25T08:53:07.882Z,8.80
2017-04-25T08:54:06.200Z,8.60
2017-04-25T08:55:04.190Z,8.50
2017-04-25T08:56:01.527Z,8.50
2017-04-25T08:56:59.516Z,8.40
2017-04-25T08:57:56.944Z,8.60
2017-04-25T08:58:54.334Z,8.70
2017-04-25T08:59:51.711Z,8.80
2017-04-25T09:00:49.888Z,9.00
2017-04-25T09:01:47.219Z,9.00
2017-04-25T09:02:44.711Z,9.10
2017-04-25T09:03:42.083Z,9.20
2017-04-25T09:04:39.456Z,9.10
2017-04-25T09:06:57.166Z,9.20
2017-04-25T09:07:55.342Z,9.50
2017-04-25T09:08:52.812Z,9.40
2017-04-25T09:09:51.063Z,9.50
2017-04-25T09:10:48.466Z,9.70
2017-04-25T09:11:46.527Z,9.80
2017-04-25T09:12:44.551Z,9.90
2017-04-25T09:13:41.945Z,10.00
2017-04-25T09:14:39.962Z,10.20
2017-04-25T09:15:37.362Z,10.10
2017-04-25T09:16:34.742Z,10.00
2017-04-25T09:17:33.113Z,10.20
2017-04-25T09:18:30.972Z,10.40
2017-04-25T09:19:30.073Z,10.30
2017-04-25T09:20:28.001Z,10.40
2017-04-25T09:21:25.410Z,10.50
2017-04-25T09:32:02.908Z,10.20
2017-04-25T09:33:01.065Z,9.80
2017-04-25T09:33:58.417Z,9.90
2017-04-25T09:34:56.416Z,10.00
2017-04-25T09:35:53.749Z,10.10
2017-04-25T09:36:52.094Z,10.10
2017-04-25T09:37:50.389Z,9.90
2017-04-25T09:38:48.729Z,9.90
2017-04-25T09:39:46.116Z,10.00
2017-04-25T09:40:43.566Z,10.00
2017-04-25T09:41:41.009Z,10.10
2017-04-25T09:42:39.315Z,10.10
2017-04-25T09:43:37.264Z,10.10
2017-04-25T09:44:35.490Z,10.20
2017-04-25T09:45:33.514Z,10.20
2017-04-25T09:46:30.937Z,10.00
2017-04-25T09:47:28.362Z,10.00
2017-04-25T09:48:25.759Z,9.90
2017-04-25T09:49:23.097Z,9.80
2017-04-25T09:50:20.496Z,9.60
2017-04-25T09:51:18.095Z,9.40
2017-04-25T09:52:15.448Z,9.30
2017-04-25T09:53:12.848Z,9.10
2017-04-25T09:54:10.190Z,8.90
2017-04-25T09:55:07.657Z,8.80
2017-04-25T09:56:05.207Z,8.50
2017-04-25T09:57:03.416Z,8.20
2017-04-25T09:58:00.785Z,8.20
2017-04-25T09:58:58.955Z,8.10
2017-04-25T09:59:56.351Z,8.10
2017-04-25T10:00:53.844Z,8.20
2017-04-25T10:01:51.312Z,8.20
2017-04-25T10:02:49.619Z,8.30
2017-04-25T10:03:47.184Z,8.30
2017-04-25T10:04:45.341Z,8.60
2017-04-25T10:05:43.433Z,8.60
2017-04-25T10:06:40.875Z,8.80
2017-04-25T10:07:38.304Z,8.90
2017-04-25T10:08:35.917Z,9.10
2017-04-25T10:09:33.410Z,9.40
2017-04-25T10:10:30.814Z,9.50
2017-04-25T10:11:28.407Z,9.50
2017-04-25T10:12:25.893Z,9.50
2017-04-25T10:13:23.439Z,9.60
2017-04-25T10:14:21.024Z,9.60
2017-04-25T10:15:18.415Z,9.70
2017-04-25T10:16:15.870Z,9.60
2017-04-25T10:17:13.987Z,9.30
2017-04-25T10:18:11.580Z,9.10
2017-04-25T10:19:09.046Z,8.90
2017-04-25T10:20:06.814Z,8.70
2017-04-25T10:21:04.992Z,8.50
2017-04-25T10:22:02.996Z,8.40
2017-04-25T10:23:00.792Z,8.40
2017-04-25T10:23:58.584Z,8.40
2017-04-25T10:24:56.416Z,8.50
2017-04-25T10:25:54.262Z,8.60
2017-04-25T10:26:51.970Z,8.40
2017-04-25T10:27:50.719Z,8.50
2017-04-25T10:28:49.395Z,8.60
2017-04-25T10:29:48.443Z,8.60
2017-04-25T10:30:46.499Z,8.60
2017-04-25T10:31:46.650Z,8.70
2017-04-25T10:32:44.913Z,8.80
2017-04-25T10:33:42.728Z,8.90
2017-04-25T10:34:41.063Z,9.00
2017-04-25T10:35:39.186Z,9.10
2017-04-25T10:36:37.597Z,9.30
2017-04-25T10:37:35.550Z,9.40
2017-04-25T10:38:33.327Z,9.60
2017-04-25T10:39:32.046Z,9.60
2017-04-25T10:40:30.734Z,9.60
2017-04-25T10:41:29.228Z,9.80
2017-04-25T10:42:27.330Z,9.70
2017-04-25T10:43:28.627Z,9.70
2017-04-25T10:44:26.907Z,9.70
2017-04-25T10:45:24.965Z,9.70
2017-04-25T10:46:23.475Z,9.60
2017-04-25T10:47:22.244Z,9.70
2017-04-25T10:48:20.850Z,9.60
2017-04-25T10:49:18.884Z,9.60
2017-04-25T10:50:17.169Z,9.50
2017-04-25T10:51:17.823Z,9.40
2017-04-25T10:52:15.894Z,9.60
2017-04-25T10:53:13.975Z,9.70
2017-04-25T10:54:12.138Z,9.80
2017-04-25T10:55:10.685Z,9.90
2017-04-25T10:56:09.740Z,10.10
2017-04-25T10:57:08.378Z,10.20
2017-04-25T10:58:06.456Z,10.40
2017-04-25T10:59:04.111Z,10.60
2017-04-25T11:00:02.859Z,10.80
2017-04-25T11:01:00.954Z,10.60
2017-04-25T11:01:59.753Z,10.80
2017-04-25T11:02:57.520Z,10.80
2017-04-25T11:03:55.415Z,10.80
2017-04-25T11:04:53.050Z,11.10
2017-04-25T11:05:51.054Z,11.20
2017-04-25T11:06:49.050Z,11.40
2017-04-25T11:07:46.447Z,11.40
2017-04-25T11:08:44.558Z,11.30
2017-04-25T11:09:42.014Z,11.50
2017-04-25T11:10:39.534Z,11.20
2017-04-25T11:11:37.581Z,11.10
2017-04-25T11:12:35.193Z,11.00
2017-04-25T11:13:32.630Z,10.70
2017-04-25T11:14:30.206Z,10.70
2017-04-25T11:15:27.611Z,10.30
2017-04-25T11:16:25.037Z,10.40
2017-04-25T11:17:23.477Z,10.40
2017-04-25T11:18:20.943Z,10.40
2017-04-25T11:19:18.485Z,10.30
2017-04-25T11:20:16.553Z,10.20
2017-04-25T11:21:14.005Z,10.10
2017-04-25T11:22:11.463Z,10.00
2017-04-25T11:23:09.059Z,9.90
2017-04-25T11:24:07.477Z,9.90
2017-04-25T11:25:04.859Z,10.00
2017-04-25T11:26:02.287Z,10.00
2017-04-25T11:27:00.955Z,9.70
2017-04-25T11:27:59.409Z,9.50
2017-04-25T11:28:57.390Z,9.30
2017-04-25T11:29:54.796Z,9.30
2017-04-25T11:30:52.290Z,9.50
2017-04-25T11:31:50.011Z,9.40
2017-04-25T11:32:47.522Z,9.40
2017-04-25T11:33:44.883Z,9.50
2017-04-25T11:34:42.303Z,9.40
2017-04-25T11:35:39.709Z,9.40
2017-04-25T11:36:37.618Z,9.30
2017-04-25T11:37:35.145Z,9.50
2017-04-25T11:38:32.517Z,9.60
2017-04-25T11:39:29.938Z,9.70
2017-04-25T11:40:27.395Z,10.00
2017-04-25T11:41:24.781Z,10.10
2017-04-25T11:42:23.477Z,10.30
2017-04-25T11:43:21.425Z,10.40
2017-04-25T11:44:19.627Z,10.50
2017-04-25T11:45:17.794Z,10.50
2017-04-25T11:46:15.885Z,10.40
2017-04-25T11:47:13.488Z,10.40
2017-04-25T11:48:11.470Z,10.50
2017-04-25T11:49:08.855Z,10.70
2017-04-25T11:50:06.255Z,10.90
2017-04-25T11:51:05.022Z,11.00
2017-04-25T11:52:02.398Z,11.00
2017-04-25T11:52:59.981Z,11.10
2017-04-25T11:53:57.602Z,11.30
2017-04-25T11:54:55.006Z,11.20
2017-04-25T11:55:55.310Z,11.20
2017-04-25T11:56:53.319Z,11.30
2017-04-25T11:57:50.781Z,11.30
2017-04-25T11:58:49.258Z,11.40
2017-04-25T11:59:46.786Z,11.70
2017-04-25T12:00:44.177Z,11.50
2017-04-25T12:01:42.124Z,11.60
2017-04-25T12:02:39.568Z,11.60
2017-04-25T12:03:37.051Z,11.80
2017-04-25T12:04:35.039Z,11.80
2017-04-25T12:05:32.421Z,11.80
2017-04-25T12:06:30.438Z,11.90
2017-04-25T12:07:28.334Z,11.90
2017-04-25T12:08:26.593Z,11.80
2017-04-25T12:09:23.944Z,11.70
2017-04-25T12:10:21.371Z,11.70
2017-04-25T12:11:19.121Z,11.50
2017-04-25T12:12:16.523Z,11.70
2017-04-25T12:13:13.933Z,11.80
2017-04-25T12:14:11.385Z,11.50
2017-04-25T12:15:08.802Z,11.30
2017-04-25T12:16:06.249Z,11.20
2017-04-25T12:17:04.452Z,11.00
2017-04-25T12:18:01.812Z,11.00
2017-04-25T12:18:59.336Z,11.00
2017-04-25T12:19:56.682Z,11.10
2017-04-25T12:20:54.129Z,11.30
2017-04-25T12:21:52.982Z,11.60
2017-04-25T12:22:53.529Z,11.70
2017-04-25T12:23:50.994Z,11.80
2017-04-25T12:24:48.418Z,12.00
2017-04-25T12:25:45.812Z,11.90
2017-04-25T12:26:44.681Z,12.00
2017-04-25T12:27:42.095Z,11.90
2017-04-25T12:28:39.592Z,11.50
2017-04-25T12:29:38.385Z,11.60
2017-04-25T12:30:36.416Z,11.50
2017-04-25T12:31:33.795Z,11.50
2017-04-25T12:32:31.190Z,11.50
2017-04-25T12:33:28.569Z,11.70
2017-04-25T12:34:25.924Z,11.80
2017-04-25T12:35:24.683Z,11.90
2017-04-25T12:36:23.510Z,11.90
2017-04-25T12:37:21.481Z,12.10
2017-04-25T12:38:18.889Z,12.20
2017-04-25T12:39:17.118Z,12.40
2017-04-25T12:40:14.756Z,12.60
2017-04-25T12:41:12.614Z,12.70
2017-04-25T12:42:09.991Z,12.30
2017-04-25T12:43:07.333Z,12.20
2017-04-25T12:44:05.575Z,11.80
2017-04-25T12:45:03.526Z,12.00
2017-04-25T12:46:01.603Z,11.90
2017-04-25T12:46:58.929Z,11.90
2017-04-25T12:47:56.908Z,11.90
2017-04-25T12:48:54.278Z,11.90
2017-04-25T12:49:52.726Z,12.00
2017-04-25T12:50:50.578Z,12.10
2017-04-25T12:51:48.767Z,12.10
2017-04-25T12:52:46.142Z,12.10
2017-04-25T12:53:44.128Z,12.10
2017-04-25T12:54:42.307Z,11.90
2017-04-25T12:55:40.475Z,11.70
2017-04-25T12:56:38.503Z,11.80
2017-04-25T12:57:35.868Z,12.00
2017-04-25T12:58:33.431Z,12.40
2017-04-25T12:59:31.001Z,12.50
2017-04-25T13:00:30.668Z,12.70
2017-04-25T13:01:28.154Z,12.60
2017-04-25T13:02:25.518Z,12.10
2017-04-25T13:03:23.189Z,12.10
2017-04-25T13:04:20.558Z,12.10
2017-04-25T13:05:18.016Z,12.00
2017-04-25T13:06:16.163Z,11.80
2017-04-25T13:07:13.626Z,11.70
2017-04-25T13:08:11.160Z,11.60
2017-04-25T13:09:09.388Z,11.70
2017-04-25T13:10:06.883Z,11.80
2017-04-25T13:11:04.917Z,11.90
2017-04-25T13:12:02.341Z,12.10
2017-04-25T13:12:59.843Z,12.00
2017-04-25T13:13:57.368Z,12.10
2017-04-25T13:14:55.749Z,12.10
2017-04-25T13:15:53.420Z,12.00
2017-04-25T13:16:50.822Z,11.70
2017-04-25T13:17:50.847Z,11.20
2017-04-25T13:18:48.279Z,11.20
2017-04-25T13:19:45.740Z,11.20
2017-04-25T13:20:43.751Z,11.20
2017-04-25T13:21:42.008Z,11.30
2017-04-25T13:22:39.489Z,11.50
2017-04-25T13:23:36.841Z,11.60
2017-04-25T13:24:34.300Z,11.60
2017-04-25T13:25:32.254Z,11.90
2017-04-25T13:26:30.545Z,12.20
2017-04-25T13:27:28.938Z,12.10
2017-04-25T13:28:27.647Z,12.10
2017-04-25T13:29:25.288Z,12.10
2017-04-25T13:30:23.398Z,12.30
2017-04-25T13:31:20.846Z,12.30
2017-04-25T13:32:18.471Z,12.20
2017-04-25T13:33:16.727Z,12.60
2017-04-25T13:34:15.071Z,12.50
2017-04-25T13:35:13.068Z,12.60
2017-04-25T13:36:11.398Z,12.30
2017-04-25T13:37:09.631Z,12.20
2017-04-25T13:38:07.071Z,12.20
2017-04-25T13:39:06.043Z,12.10
2017-04-25T13:40:04.131Z,12.20
2017-04-25T13:41:02.045Z,12.30
2017-04-25T13:42:00.144Z,12.10
2017-04-25T13:42:57.745Z,12.00
2017-04-25T13:43:55.114Z,12.00
2017-04-25T13:44:52.525Z,12.10
2017-04-25T13:45:50.830Z,12.00
2017-04-25T13:46:48.248Z,11.60
2017-04-25T13:47:46.482Z,11.60
2017-04-25T13:48:43.977Z,11.60
2017-04-25T13:49:42.282Z,11.60
2017-04-25T13:50:40.955Z,11.80
2017-04-25T13:51:38.399Z,11.70
2017-04-25T13:52:36.140Z,12.00
2017-04-25T13:53:34.092Z,12.10
2017-04-25T13:54:32.269Z,12.10
2017-04-25T13:55:29.798Z,11.90
2017-04-25T13:56:28.874Z,11.80
2017-04-25T13:57:26.439Z,11.70
2017-04-25T13:58:23.902Z,12.00
2017-04-25T13:59:21.420Z,12.00
2017-04-25T14:00:21.035Z,11.90
2017-04-25T14:01:19.297Z,12.00
2017-04-25T14:02:18.115Z,12.00
2017-04-25T14:03:16.495Z,11.60
2017-04-25T14:04:14.428Z,11.20
2017-04-25T14:05:12.818Z,11.30
2017-04-25T14:06:10.661Z,11.40
2017-04-25T14:07:10.064Z,11.60
2017-04-25T14:08:07.508Z,11.50
2017-04-25T14:09:05.700Z,11.60
2017-04-25T14:10:04.661Z,11.60
2017-04-25T14:11:03.048Z,11.60
2017-04-25T14:12:01.848Z,11.60
2017-04-25T14:12:59.729Z,11.60
2017-04-25T14:13:57.999Z,11.60
2017-04-25T14:14:57.466Z,11.60
2017-04-25T14:15:55.000Z,11.60
2017-04-25T14:16:53.035Z,11.50
2017-04-25T14:17:50.782Z,11.50
2017-04-25T14:18:48.998Z,11.50
2017-04-25T14:19:46.796Z,11.20
2017-04-25T14:20:44.170Z,11.20
2017-04-25T14:21:42.585Z,10.90
2017-04-25T14:22:41.565Z,10.90
2017-04-25T14:23:39.032Z,10.90
2017-04-25T14:24:36.479Z,11.00
2017-04-25T14:25:36.211Z,11.30
2017-04-25T14:26:34.354Z,11.30
2017-04-25T14:27:32.675Z,11.30
2017-04-25T14:28:30.847Z,11.40
2017-04-25T14:29:28.796Z,11.40
2017-04-25T14:30:26.176Z,11.50
2017-04-25T14:31:24.710Z,11.50
2017-04-25T14:32:23.445Z,11.10
2017-04-25T14:33:21.153Z,11.10
2017-04-25T14:34:19.585Z,11.20
2017-04-25T14:35:17.503Z,11.10
2017-04-25T14:36:16.348Z,11.30
2017-04-25T14:37:14.042Z,11.30
2017-04-25T14:38:11.594Z,11.60
2017-04-25T14:39:09.141Z,11.80
2017-04-25T14:40:09.174Z,12.10
2017-04-25T14:41:07.907Z,12.10
2017-04-25T14:42:06.494Z,12.10
2017-04-25T14:43:05.269Z,12.30
2017-04-25T14:44:03.651Z,12.50
2017-04-25T14:45:01.368Z,12.60
2017-04-25T14:46:00.403Z,12.20
2017-04-25T14:46:58.851Z,12.20
2017-04-25T14:47:56.646Z,12.00
2017-04-25T14:48:55.088Z,11.80
2017-04-25T14:49:52.773Z,11.60
2017-04-25T14:50:51.070Z,11.30
2017-04-25T14:51:48.859Z,11.10
2017-04-25T14:52:46.590Z,11.00
2017-04-25T14:53:43.978Z,10.70
2017-04-25T14:54:41.499Z,10.60
2017-04-25T14:55:39.818Z,10.50
2017-04-25T14:56:37.468Z,10.30
2017-04-25T14:57:34.891Z,10.20
2017-04-25T14:58:32.304Z,10.10
2017-04-25T14:59:29.853Z,10.20
2017-04-25T15:00:27.221Z,10.10
2017-04-25T15:01:24.604Z,10.00
2017-04-25T15:02:22.048Z,9.90
2017-04-25T15:03:19.433Z,9.90
2017-04-25T15:04:17.154Z,9.90
2017-04-25T15:05:15.867Z,9.90
2017-04-25T15:06:14.336Z,9.90
2017-04-25T15:07:11.794Z,10.00
2017-04-25T15:08:09.250Z,10.10
2017-04-25T15:09:07.966Z,10.30
2017-04-25T15:10:05.545Z,10.30
2017-04-25T15:11:03.045Z,10.30
2017-04-25T15:12:00.539Z,10.50
2017-04-25T15:12:57.982Z,10.50
2017-04-25T15:13:55.436Z,10.50
2017-04-25T15:14:52.819Z,10.60
2017-04-25T15:15:51.732Z,10.60
2017-04-25T15:16:49.134Z,10.50
2017-04-25T15:17:46.578Z,10.60
2017-04-25T15:18:43.962Z,10.50
2017-04-25T15:19:42.102Z,10.50
2017-04-25T15:20:40.225Z,10.40
2017-04-25T15:21:37.736Z,10.20
2017-04-25T15:22:36.386Z,10.10
2017-04-25T15:23:33.823Z,10.20
2017-04-25T15:24:31.221Z,10.10
2017-04-25T15:25:28.695Z,10.20
2017-04-25T15:26:27.214Z,10.20
2017-04-25T15:27:24.883Z,10.00
2017-04-25T15:28:22.357Z,10.00
2017-04-25T15:29:19.831Z,10.10
2017-04-25T15:30:17.254Z,10.00
2017-04-25T15:31:14.721Z,10.10
2017-04-25T15:32:12.101Z,10.10
2017-04-25T15:33:09.881Z,9.90
2017-04-25T15:34:07.336Z,9.90
2017-04-25T15:35:04.899Z,10.00
2017-04-25T15:36:03.892Z,10.10
2017-04-25T15:37:01.961Z,10.00
2017-04-25T15:37:59.544Z,10.00
2017-04-25T15:38:57.010Z,10.00
2017-04-25T15:39:54.895Z,10.10
2017-04-25T15:40:52.409Z,10.10
2017-04-25T15:41:50.412Z,10.10
2017-04-25T15:42:50.012Z,10.10
2017-04-25T15:43:48.127Z,10.00
2017-04-25T15:44:45.794Z,10.00
2017-04-25T15:45:44.183Z,9.90
2017-04-25T15:46:41.674Z,9.90
2017-04-25T15:47:39.567Z,10.00
2017-04-25T15:48:37.620Z,9.90
2017-04-25T15:49:35.038Z,10.00
2017-04-25T15:50:32.500Z,10.00
2017-04-25T15:51:29.863Z,10.10
2017-04-25T15:52:27.266Z,10.10
2017-04-25T15:53:24.625Z,10.10
2017-04-25T15:54:22.042Z,10.20
2017-04-25T15:55:19.554Z,10.20
2017-04-25T15:56:18.173Z,10.20
2017-04-25T15:57:15.573Z,10.30
2017-04-25T15:58:12.945Z,10.20
2017-04-25T15:59:11.167Z,10.10
2017-04-25T16:00:08.587Z,9.90
2017-04-25T16:01:06.135Z,9.70
2017-04-25T16:02:04.153Z,9.60
2017-04-25T16:03:02.853Z,9.30
2017-04-25T16:04:00.292Z,9.20
2017-04-25T16:04:58.556Z,9.20
2017-04-25T16:05:56.422Z,9.20
2017-04-25T16:06:54.277Z,9.20
2017-04-25T16:07:52.010Z,9.30
2017-04-25T16:08:49.871Z,9.30
2017-04-25T16:09:48.181Z,9.40
2017-04-25T16:10:46.048Z,9.50
2017-04-25T16:11:43.818Z,9.50
2017-04-25T16:12:41.692Z,9.50
2017-04-25T16:13:39.605Z,9.60
2017-04-25T16:14:38.236Z,9.70
2017-04-25T16:15:36.192Z,9.70
2017-04-25T16:16:34.209Z,9.80
2017-04-25T16:17:32.827Z,9.80
2017-04-25T16:18:31.340Z,9.80
2017-04-25T16:19:30.089Z,9.80
2017-04-25T16:20:28.055Z,9.90
2017-04-25T16:21:26.337Z,9.90
2017-04-25T16:22:24.226Z,9.90
2017-04-25T16:23:23.302Z,10.00
2017-04-25T16:24:21.116Z,10.00
2017-04-25T16:25:19.456Z,10.10
2017-04-25T16:26:18.306Z,10.30
2017-04-25T16:27:16.231Z,10.20
2017-04-25T16:28:15.363Z,10.20
2017-04-25T16:29:13.235Z,10.20
2017-04-25T16:30:12.870Z,10.00
2017-04-25T16:31:10.864Z,9.90
2017-04-25T16:32:08.969Z,9.80
2017-04-25T16:33:07.030Z,9.80
2017-04-25T16:34:04.509Z,9.60
2017-04-25T16:35:10.345Z,9.60
2017-04-25T16:36:08.230Z,9.50
2017-04-25T16:37:05.659Z,9.50
2017-04-25T16:38:03.250Z,9.40
2017-04-25T16:39:01.595Z,9.40
2017-04-25T16:39:59.351Z,9.30
2017-04-25T16:40:56.769Z,9.20
2017-04-25T16:41:55.306Z,9.20
2017-04-25T16:42:54.592Z,9.10
2017-04-25T16:43:52.857Z,9.00
2017-04-25T16:44:50.825Z,8.90
2017-04-25T16:45:48.817Z,8.80
2017-04-25T16:46:46.410Z,8.80
2017-04-25T16:47:43.874Z,8.80
2017-04-25T16:48:41.288Z,8.70
2017-04-25T16:49:38.698Z,8.70
2017-04-25T16:50:36.590Z,8.70
2017-04-25T16:51:36.165Z,8.90
2017-04-25T16:52:35.253Z,8.80
2017-04-25T16:53:32.687Z,8.90
2017-04-25T16:54:31.988Z,9.00
2017-04-25T16:55:30.860Z,9.10
2017-04-25T16:56:29.268Z,9.10
2017-04-25T16:57:27.656Z,9.10
2017-04-25T16:58:26.284Z,9.10
2017-04-25T16:59:24.012Z,9.10
2017-04-25T17:00:21.542Z,9.10
2017-04-25T17:01:19.388Z,9.10
2017-04-25T17:02:18.062Z,9.00
2017-04-25T17:03:17.132Z,9.10
2017-04-25T17:04:14.719Z,9.10
2017-04-25T17:05:13.280Z,9.10
2017-04-25T17:06:11.001Z,9.30
2017-04-25T17:07:09.511Z,9.30
2017-04-25T17:08:07.196Z,9.40
2017-04-25T17:09:06.142Z,9.50
2017-04-25T17:10:04.187Z,9.60
2017-04-25T17:11:02.231Z,9.60
2017-04-25T17:12:01.440Z,9.50
2017-04-25T17:13:00.250Z,9.40
2017-04-25T17:13:57.621Z,9.50
2017-04-25T17:14:56.372Z,9.50
2017-04-25T17:15:53.787Z,9.50
2017-04-25T17:16:51.759Z,9.60
2017-04-25T17:17:50.430Z,9.60
2017-04-25T17:18:48.795Z,9.50
2017-04-25T17:19:47.536Z,9.30
2017-04-25T17:20:45.367Z,9.20
2017-04-25T17:21:43.335Z,8.90
2017-04-25T17:22:42.017Z,8.90
2017-04-25T17:23:39.712Z,8.70
2017-04-25T17:24:38.502Z,8.50
2017-04-25T17:25:38.274Z,8.50
2017-04-25T17:26:35.854Z,8.50
2017-04-25T17:27:34.073Z,8.50
2017-04-25T17:28:32.141Z,8.50
2017-04-25T17:29:30.140Z,8.50
2017-04-25T17:30:28.802Z,8.40
2017-04-25T17:31:27.289Z,8.40
2017-04-25T17:32:25.657Z,8.50
2017-04-25T17:33:23.547Z,8.50
2017-04-25T17:34:21.065Z,8.50
2017-04-25T17:35:18.966Z,8.50
2017-04-25T17:36:19.203Z,8.50
2017-04-25T17:37:17.107Z,8.50
2017-04-25T17:38:15.133Z,8.50
2017-04-25T17:39:14.504Z,8.50
2017-04-25T17:40:13.714Z,8.50
2017-04-25T17:41:12.203Z,8.40
2017-04-25T17:42:09.718Z,8.40
2017-04-25T17:43:07.761Z,8.40
2017-04-25T17:44:05.317Z,8.40
2017-04-25T17:45:03.824Z,8.30
2017-04-25T17:46:02.332Z,8.30
2017-04-25T17:47:00.522Z,8.20
2017-04-25T17:48:00.254Z,8.20
2017-04-25T17:48:58.309Z,8.20
2017-04-25T17:49:56.182Z,8.20
2017-04-25T17:50:54.045Z,8.20
2017-04-25T17:51:51.751Z,8.20
2017-04-25T17:52:49.658Z,8.20
2017-04-25T17:53:48.254Z,8.20
2017-04-25T17:54:46.881Z,8.20
2017-04-25T17:55:45.585Z,8.20
2017-04-25T17:56:43.746Z,8.20
2017-04-25T17:57:42.598Z,8.20
2017-04-25T17:58:41.189Z,8.20
2017-04-25T17:59:39.333Z,8.20
2017-04-25T18:00:37.281Z,8.10
2017-04-25T18:01:35.033Z,8.10
2017-04-25T18:02:32.554Z,8.10
2017-04-25T18:03:32.317Z,8.00
2017-04-25T18:04:31.858Z,8.10
2017-04-25T18:05:29.453Z,8.00
2017-04-25T18:06:28.069Z,8.10
2017-04-25T18:07:25.897Z,8.00
2017-04-25T18:08:24.158Z,8.00
2017-04-25T18:09:21.574Z,8.00
2017-04-25T18:10:19.595Z,7.90
2017-04-25T18:11:17.359Z,7.90
2017-04-25T18:12:15.168Z,7.90
2017-04-25T18:13:14.424Z,7.90
2017-04-25T18:14:13.370Z,8.00
2017-04-25T18:15:11.082Z,8.00
2017-04-25T18:16:10.364Z,7.90
2017-04-25T18:17:09.351Z,7.90
2017-04-25T18:18:07.435Z,7.80
2017-04-25T18:19:04.917Z,7.80
2017-04-25T18:20:03.602Z,7.80
2017-04-25T18:21:02.015Z,7.80
2017-04-25T18:21:59.373Z,7.70
2017-04-25T18:22:56.995Z,7.70
2017-04-25T18:23:56.031Z,7.60
2017-04-25T18:24:53.561Z,7.60
2017-04-25T18:25:52.289Z,7.60
2017-04-25T18:26:51.097Z,7.60
2017-04-25T18:27:48.697Z,7.60
2017-04-25T18:28:46.631Z,7.60
2017-04-25T18:29:44.131Z,7.60
2017-04-25T18:30:43.330Z,7.60
2017-04-25T18:31:40.834Z,7.60
2017-04-25T18:32:39.218Z,7.60
2017-04-25T18:33:38.024Z,7.50
2017-04-25T18:34:37.090Z,7.50
2017-04-25T18:35:34.730Z,7.50
2017-04-25T18:36:32.893Z,7.50
2017-04-25T18:37:30.834Z,7.40
2017-04-25T18:38:29.222Z,7.40
2017-04-25T18:39:27.920Z,7.40
2017-04-25T18:40:26.270Z,7.40
2017-04-25T18:41:24.214Z,7.40
2017-04-25T18:42:23.427Z,7.40
2017-04-25T18:43:24.165Z,7.30
2017-04-25T18:44:22.770Z,7.30
2017-04-25T18:45:21.862Z,7.30
2017-04-25T18:46:19.912Z,7.30
2017-04-25T18:47:18.934Z,7.30
2017-04-25T18:48:17.705Z,7.30
2017-04-25T18:49:16.314Z,7.30
2017-04-25T18:50:13.951Z,7.20
2017-04-25T18:51:11.344Z,7.20
2017-04-25T18:52:10.542Z,7.20
2017-04-25T18:53:09.530Z,7.10
2017-04-25T18:54:07.350Z,7.10
2017-04-25T18:55:05.134Z,7.10
2017-04-25T18:56:03.619Z,7.10
2017-04-25T18:57:01.749Z,7.10
2017-04-25T18:58:00.468Z,7.00
2017-04-25T18:58:59.151Z,7.00
2017-04-25T18:59:56.939Z,7.00
2017-04-25T19:00:54.453Z,6.90
2017-04-25T19:01:52.208Z,6.90
2017-04-25T19:02:51.249Z,6.90
2017-04-25T19:03:50.329Z,6.80
2017-04-25T19:04:48.538Z,6.80
2017-04-25T19:05:46.664Z,6.80
2017-04-25T19:06:45.434Z,6.80
2017-04-25T19:07:44.193Z,6.70
2017-04-25T19:08:43.570Z,6.80
2017-04-25T19:09:42.420Z,6.80
2017-04-25T19:10:40.953Z,6.80
2017-04-25T19:11:38.558Z,6.80
2017-04-25T19:12:37.959Z,6.80
2017-04-25T19:13:35.344Z,6.70
2017-04-25T19:14:33.301Z,6.80
2017-04-25T19:15:34.438Z,6.70
2017-04-25T19:16:33.863Z,6.70
2017-04-25T19:17:33.031Z,6.60
2017-04-25T19:18:31.550Z,6.60
2017-04-25T19:19:30.262Z,6.60
2017-04-25T19:20:28.683Z,6.60
2017-04-25T19:21:26.391Z,6.60
2017-04-25T19:22:24.394Z,6.60
2017-04-25T19:23:22.693Z,6.50
2017-04-25T19:24:22.956Z,6.50
2017-04-25T19:25:20.927Z,6.50
2017-04-25T19:26:19.977Z,6.50
2017-04-25T19:27:18.939Z,6.40